KGRY

Green Canyon 338

Green Canyon 338, Louisiana, USA
METAR KGRY 191235Z AUTO 00000KT 10SM CLR 29/24 A2997 RMK A01
Observed Flight Rules
Sep-19 @ 12:35 UTC (21 minutes ago) Visual Flight Rules
Visibility Clouds
10 miles
  • Clear skies
Temperatures Readings
Current 29°C / 84°F
Dewpoint 24°C / 75°F
Humidity 74%
Altimeter 29.97" Hg
Pressure 1015 hPa
Elevation 58
METAR KGRY 191235Z AUTO 00000KT 10SM CLR 29/24 A2997 RMK A01
Observed Flight Rules
Sep-19 @ 12:35 UTC
(21 minutes ago)
VFR
Clouds
  • Clear skies
Temperature Dewpoint
29°C / 84°F 24°C / 75°F
Humidity Altimeter Pressure
74% 29.97" Hg 1015 hPa